sensor_id;sensor_type;location;lat;lon;timestamp;pressure;altitude;pressure_sealevel;temperature;humidity
75604;BME280;64187;51.010;13.792;2023-05-10T00:03:18;99782.38;;;13.73;48.00
75604;BME280;64187;51.010;13.792;2023-05-10T00:08:17;99779.66;;;13.78;48.04
75604;BME280;64187;51.010;13.792;2023-05-10T00:13:16;99779.44;;;13.70;48.27
75604;BME280;64187;51.010;13.792;2023-05-10T00:18:15;99765.31;;;13.57;48.79
75604;BME280;64187;51.010;13.792;2023-05-10T00:23:14;99763.16;;;13.54;48.47
75604;BME280;64187;51.010;13.792;2023-05-10T00:28:13;99770.75;;;13.63;48.32
75604;BME280;64187;51.010;13.792;2023-05-10T00:33:12;99766.97;;;13.48;48.54
75604;BME280;64187;51.010;13.792;2023-05-10T00:38:11;99764.81;;;13.35;48.93
75604;BME280;64187;51.010;13.792;2023-05-10T00:43:09;99759.63;;;13.44;48.73
75604;BME280;64187;51.010;13.792;2023-05-10T00:48:08;99755.56;;;13.36;48.65
75604;BME280;64187;51.010;13.792;2023-05-10T00:53:08;99753.41;;;13.28;48.76
75604;BME280;64187;51.010;13.792;2023-05-10T00:58:08;99758.81;;;13.18;48.85
75604;BME280;64187;51.010;13.792;2023-05-10T01:03:07;99747.94;;;13.23;48.69
75604;BME280;64187;51.010;13.792;2023-05-10T01:08:06;99752.56;;;13.22;49.00
75604;BME280;64187;51.010;13.792;2023-05-10T01:13:07;99749.03;;;13.11;48.96
75604;BME280;64187;51.010;13.792;2023-05-10T01:18:08;99745.78;;;13.14;49.04
75604;BME280;64187;51.010;13.792;2023-05-10T01:28:57;99739.00;;;12.91;49.73
75604;BME280;64187;51.010;13.792;2023-05-10T01:34:02;99744.44;;;12.86;50.14
75604;BME280;64187;51.010;13.792;2023-05-10T01:44:45;99730.59;;;12.67;50.54
75604;BME280;64187;51.010;13.792;2023-05-10T01:49:50;99730.59;;;12.73;50.23
75604;BME280;64187;51.010;13.792;2023-05-10T01:55:02;99736.81;;;12.58;50.86
75604;BME280;64187;51.010;13.792;2023-05-10T02:00:03;99733.81;;;12.54;51.01
75604;BME280;64187;51.010;13.792;2023-05-10T02:05:13;99724.28;;;12.41;51.75
75604;BME280;64187;51.010;13.792;2023-05-10T02:10:13;99726.22;;;12.51;51.88
75604;BME280;64187;51.010;13.792;2023-05-10T02:15:18;99719.66;;;12.32;52.22
75604;BME280;64187;51.010;13.792;2023-05-10T02:20:18;99728.38;;;12.39;52.41
75604;BME280;64187;51.010;13.792;2023-05-10T02:25:21;99720.72;;;12.10;52.95
75604;BME280;64187;51.010;13.792;2023-05-10T02:30:21;99720.72;;;12.15;53.05
75604;BME280;64187;51.010;13.792;2023-05-10T02:35:22;99713.66;;;12.09;53.23
75604;BME280;64187;51.010;13.792;2023-05-10T02:40:22;99722.06;;;12.07;53.25
75604;BME280;64187;51.010;13.792;2023-05-10T02:45:29;99714.44;;;12.04;53.66
75604;BME280;64187;51.010;13.792;2023-05-10T02:50:30;99715.44;;;11.83;54.41
75604;BME280;64187;51.010;13.792;2023-05-10T02:55:36;99710.53;;;11.80;54.16
75604;BME280;64187;51.010;13.792;2023-05-10T03:00:36;99711.38;;;11.80;54.44
75604;BME280;64187;51.010;13.792;2023-05-10T03:05:35;99717.28;;;11.77;54.65
75604;BME280;64187;51.010;13.792;2023-05-10T03:11:14;99715.63;;;11.66;55.04
75604;BME280;64187;51.010;13.792;2023-05-10T03:16:24;99716.78;;;11.80;54.72
75604;BME280;64187;51.010;13.792;2023-05-10T03:21:28;99712.94;;;11.71;54.74
75604;BME280;64187;51.010;13.792;2023-05-10T03:26:29;99714.00;;;11.65;55.26
75604;BME280;64187;51.010;13.792;2023-05-10T03:31:40;99715.94;;;11.80;54.72
75604;BME280;64187;51.010;13.792;2023-05-10T03:36:39;99720.97;;;11.46;55.89
75604;BME280;64187;51.010;13.792;2023-05-10T03:41:38;99710.78;;;11.68;55.13
75604;BME280;64187;51.010;13.792;2023-05-10T03:46:37;99713.19;;;11.64;55.46
75604;BME280;64187;51.010;13.792;2023-05-10T03:51:36;99706.94;;;11.59;55.88
75604;BME280;64187;51.010;13.792;2023-05-10T03:56:35;99717.22;;;11.62;55.52
75604;BME280;64187;51.010;13.792;2023-05-10T04:01:34;99715.13;;;11.74;55.62
75604;BME280;64187;51.010;13.792;2023-05-10T04:06:34;99727.28;;;11.61;55.89
75604;BME280;64187;51.010;13.792;2023-05-10T04:11:33;99723.25;;;11.69;55.62
75604;BME280;64187;51.010;13.792;2023-05-10T04:16:32;99717.91;;;11.90;55.53
75604;BME280;64187;51.010;13.792;2023-05-10T04:21:31;99712.97;;;11.76;55.28
75604;BME280;64187;51.010;13.792;2023-05-10T04:26:30;99712.63;;;13.12;64.11
75604;BME280;64187;51.010;13.792;2023-05-10T04:31:29;99721.25;;;13.61;60.82
75604;BME280;64187;51.010;13.792;2023-05-10T04:36:28;99724.03;;;14.10;57.13
75604;BME280;64187;51.010;13.792;2023-05-10T04:41:28;99718.59;;;14.10;52.47
75604;BME280;64187;51.010;13.792;2023-05-10T04:46:27;99711.41;;;14.30;52.51
75604;BME280;64187;51.010;13.792;2023-05-10T04:51:26;99701.41;;;14.59;50.37
75604;BME280;64187;51.010;13.792;2023-05-10T04:56:24;99706.81;;;14.20;54.44
75604;BME280;64187;51.010;13.792;2023-05-10T05:01:25;99706.25;;;13.68;51.32
75604;BME280;64187;51.010;13.792;2023-05-10T05:06:24;99714.50;;;13.38;51.70
75604;BME280;64187;51.010;13.792;2023-05-10T05:11:23;99704.47;;;13.28;51.85
75604;BME280;64187;51.010;13.792;2023-05-10T05:16:24;99701.69;;;13.48;52.22
75604;BME280;64187;51.010;13.792;2023-05-10T05:21:23;99701.44;;;13.50;52.07
75604;BME280;64187;51.010;13.792;2023-05-10T05:26:22;99707.88;;;13.74;51.01
75604;BME280;64187;51.010;13.792;2023-05-10T05:31:21;99699.94;;;13.83;50.82
75604;BME280;64187;51.010;13.792;2023-05-10T05:36:20;99689.31;;;13.92;51.54
75604;BME280;64187;51.010;13.792;2023-05-10T05:41:19;99695.75;;;14.06;49.97
75604;BME280;64187;51.010;13.792;2023-05-10T05:46:20;99692.13;;;14.21;49.71
75604;BME280;64187;51.010;13.792;2023-05-10T05:51:18;99691.22;;;14.31;49.65
75604;BME280;64187;51.010;13.792;2023-05-10T05:56:17;99699.31;;;14.46;50.48
75604;BME280;64187;51.010;13.792;2023-05-10T06:01:22;99694.31;;;14.63;49.64
75604;BME280;64187;51.010;13.792;2023-05-10T06:06:21;99696.69;;;14.70;49.08
75604;BME280;64187;51.010;13.792;2023-05-10T06:11:20;99698.69;;;14.94;49.12
75604;BME280;64187;51.010;13.792;2023-05-10T06:16:22;99700.38;;;15.43;48.60
75604;BME280;64187;51.010;13.792;2023-05-10T06:21:21;99709.53;;;15.52;47.47
75604;BME280;64187;51.010;13.792;2023-05-10T06:26:20;99721.91;;;15.68;47.11
75604;BME280;64187;51.010;13.792;2023-05-10T06:31:19;99718.44;;;15.87;47.15
75604;BME280;64187;51.010;13.792;2023-05-10T06:36:18;99718.00;;;15.99;46.70
75604;BME280;64187;51.010;13.792;2023-05-10T06:41:17;99716.16;;;15.94;46.95
75604;BME280;64187;51.010;13.792;2023-05-10T06:46:16;99721.13;;;16.49;45.65
75604;BME280;64187;51.010;13.792;2023-05-10T06:51:15;99721.03;;;16.54;45.53
75604;BME280;64187;51.010;13.792;2023-05-10T06:56:13;99726.66;;;16.63;45.50
75604;BME280;64187;51.010;13.792;2023-05-10T07:01:12;99735.44;;;16.78;45.48
75604;BME280;64187;51.010;13.792;2023-05-10T07:06:11;99734.56;;;17.16;45.32
75604;BME280;64187;51.010;13.792;2023-05-10T07:11:23;99733.59;;;17.07;43.85
75604;BME280;64187;51.010;13.792;2023-05-10T07:16:22;99733.03;;;17.10;45.02
75604;BME280;64187;51.010;13.792;2023-05-10T07:21:21;99726.34;;;17.16;43.60
75604;BME280;64187;51.010;13.792;2023-05-10T07:26:24;99727.16;;;17.16;44.47
75604;BME280;64187;51.010;13.792;2023-05-10T07:31:23;99736.19;;;17.17;44.93
75604;BME280;64187;51.010;13.792;2023-05-10T07:36:22;99731.06;;;17.29;44.91
75604;BME280;64187;51.010;13.792;2023-05-10T07:41:21;99734.69;;;17.38;44.30
75604;BME280;64187;51.010;13.792;2023-05-10T07:46:21;99733.41;;;17.50;44.53
75604;BME280;64187;51.010;13.792;2023-05-10T07:51:20;99726.13;;;17.59;43.99
75604;BME280;64187;51.010;13.792;2023-05-10T07:56:21;99729.06;;;18.04;44.04
75604;BME280;64187;51.010;13.792;2023-05-10T08:01:22;99721.97;;;18.39;43.48
75604;BME280;64187;51.010;13.792;2023-05-10T08:06:21;99713.91;;;18.20;43.26
75604;BME280;64187;51.010;13.792;2023-05-10T08:11:22;99714.97;;;18.33;44.02
75604;BME280;64187;51.010;13.792;2023-05-10T08:16:24;99721.06;;;18.44;43.20
75604;BME280;64187;51.010;13.792;2023-05-10T08:21:23;99721.25;;;18.70;42.77
75604;BME280;64187;51.010;13.792;2023-05-10T08:26:22;99726.03;;;19.01;42.54
75604;BME280;64187;51.010;13.792;2023-05-10T08:31:21;99728.31;;;18.85;42.66
75604;BME280;64187;51.010;13.792;2023-05-10T08:36:20;99727.38;;;19.12;42.03
75604;BME280;64187;51.010;13.792;2023-05-10T08:41:20;99730.53;;;19.05;41.87
75604;BME280;64187;51.010;13.792;2023-05-10T08:46:21;99739.59;;;19.06;42.65
75604;BME280;64187;51.010;13.792;2023-05-10T08:51:27;99749.63;;;19.10;41.94
75604;BME280;64187;51.010;13.792;2023-05-10T08:56:29;99754.00;;;19.43;42.00
75604;BME280;64187;51.010;13.792;2023-05-10T09:01:28;99760.41;;;19.61;42.32
75604;BME280;64187;51.010;13.792;2023-05-10T09:06:29;99766.50;;;19.89;42.86
75604;BME280;64187;51.010;13.792;2023-05-10T09:11:28;99769.03;;;19.76;42.36
75604;BME280;64187;51.010;13.792;2023-05-10T09:16:28;99765.47;;;19.45;41.75
75604;BME280;64187;51.010;13.792;2023-05-10T09:21:27;99772.28;;;19.78;41.83
75604;BME280;64187;51.010;13.792;2023-05-10T09:26:26;99768.16;;;20.07;41.48
75604;BME280;64187;51.010;13.792;2023-05-10T09:31:49;99763.50;;;20.08;42.62
75604;BME280;64187;51.010;13.792;2023-05-10T09:36:56;99774.50;;;20.16;41.33
75604;BME280;64187;51.010;13.792;2023-05-10T09:41:56;99772.91;;;20.24;42.64
75604;BME280;64187;51.010;13.792;2023-05-10T09:46:56;99773.09;;;20.45;42.13
75604;BME280;64187;51.010;13.792;2023-05-10T09:52:06;99775.03;;;20.36;41.42
75604;BME280;64187;51.010;13.792;2023-05-10T09:57:06;99773.41;;;20.43;42.43
75604;BME280;64187;51.010;13.792;2023-05-10T10:02:17;99780.09;;;20.69;40.71
75604;BME280;64187;51.010;13.792;2023-05-10T10:07:22;99778.47;;;20.76;40.18
75604;BME280;64187;51.010;13.792;2023-05-10T10:12:22;99769.25;;;20.55;40.62
75604;BME280;64187;51.010;13.792;2023-05-10T10:17:21;99762.94;;;20.98;41.23
75604;BME280;64187;51.010;13.792;2023-05-10T10:22:20;99764.81;;;21.32;39.87
75604;BME280;64187;51.010;13.792;2023-05-10T10:32:47;99761.78;;;21.07;40.19
75604;BME280;64187;51.010;13.792;2023-05-10T10:37:51;99772.03;;;20.72;41.39
75604;BME280;64187;51.010;13.792;2023-05-10T10:42:51;99775.72;;;20.76;41.19
75604;BME280;64187;51.010;13.792;2023-05-10T10:48:19;99777.84;;;20.88;39.78
75604;BME280;64187;51.010;13.792;2023-05-10T10:53:18;99773.94;;;20.80;40.25
75604;BME280;64187;51.010;13.792;2023-05-10T10:58:48;99774.91;;;21.02;41.10
75604;BME280;64187;51.010;13.792;2023-05-10T11:08:57;99769.59;;;20.97;40.55
75604;BME280;64187;51.010;13.792;2023-05-10T11:14:03;99771.47;;;21.22;39.66
75604;BME280;64187;51.010;13.792;2023-05-10T11:19:06;99780.03;;;21.47;40.42
75604;BME280;64187;51.010;13.792;2023-05-10T11:24:13;99782.31;;;21.45;39.44
75604;BME280;64187;51.010;13.792;2023-05-10T11:29:13;99770.81;;;21.25;39.19
75604;BME280;64187;51.010;13.792;2023-05-10T11:34:23;99785.00;;;21.54;38.72
75604;BME280;64187;51.010;13.792;2023-05-10T11:39:27;99782.44;;;21.57;39.17
75604;BME280;64187;51.010;13.792;2023-05-10T11:44:30;99784.50;;;21.60;39.16
75604;BME280;64187;51.010;13.792;2023-05-10T11:49:30;99791.06;;;21.85;39.46
75604;BME280;64187;51.010;13.792;2023-05-10T11:54:29;99775.53;;;21.16;38.91
75604;BME280;64187;51.010;13.792;2023-05-10T11:59:27;99789.16;;;21.77;40.12
75604;BME280;64187;51.010;13.792;2023-05-10T12:04:26;99787.44;;;21.93;39.30
75604;BME280;64187;51.010;13.792;2023-05-10T12:09:28;99785.63;;;22.06;38.76
75604;BME280;64187;51.010;13.792;2023-05-10T12:14:41;99779.72;;;22.17;36.34
75604;BME280;64187;51.010;13.792;2023-05-10T12:19:41;99785.88;;;22.13;37.23
75604;BME280;64187;51.010;13.792;2023-05-10T12:24:39;99799.00;;;22.25;37.24
75604;BME280;64187;51.010;13.792;2023-05-10T12:29:41;99794.66;;;22.45;38.12
75604;BME280;64187;51.010;13.792;2023-05-10T12:34:46;99793.06;;;22.86;37.51
75604;BME280;64187;51.010;13.792;2023-05-10T12:39:45;99792.78;;;22.79;38.62
75604;BME280;64187;51.010;13.792;2023-05-10T12:44:44;99797.22;;;22.21;38.43
75604;BME280;64187;51.010;13.792;2023-05-10T12:49:43;99791.56;;;22.17;39.18
75604;BME280;64187;51.010;13.792;2023-05-10T12:54:42;99801.13;;;22.20;38.56
75604;BME280;64187;51.010;13.792;2023-05-10T12:59:41;99799.31;;;22.53;37.44
75604;BME280;64187;51.010;13.792;2023-05-10T13:04:40;99798.69;;;22.90;37.76
75604;BME280;64187;51.010;13.792;2023-05-10T13:09:43;99801.91;;;23.13;37.51
75604;BME280;64187;51.010;13.792;2023-05-10T13:14:48;99794.44;;;22.92;35.70
75604;BME280;64187;51.010;13.792;2023-05-10T13:19:46;99790.69;;;23.30;38.17
75604;BME280;64187;51.010;13.792;2023-05-10T13:24:45;99799.25;;;23.04;36.75
75604;BME280;64187;51.010;13.792;2023-05-10T13:29:44;99799.56;;;22.40;36.78
75604;BME280;64187;51.010;13.792;2023-05-10T13:34:46;99797.56;;;22.49;37.49
75604;BME280;64187;51.010;13.792;2023-05-10T13:39:45;99789.97;;;22.67;36.02
75604;BME280;64187;51.010;13.792;2023-05-10T13:44:43;99785.09;;;22.43;37.62
75604;BME280;64187;51.010;13.792;2023-05-10T13:49:43;99774.41;;;22.62;37.84
75604;BME280;64187;51.010;13.792;2023-05-10T13:54:42;99787.53;;;22.86;37.11
75604;BME280;64187;51.010;13.792;2023-05-10T13:59:41;99780.25;;;22.61;37.15
75604;BME280;64187;51.010;13.792;2023-05-10T14:04:43;99780.53;;;22.68;38.15
75604;BME280;64187;51.010;13.792;2023-05-10T14:09:43;99781.72;;;22.58;38.41
75604;BME280;64187;51.010;13.792;2023-05-10T14:14:43;99780.38;;;22.22;37.24
75604;BME280;64187;51.010;13.792;2023-05-10T14:19:41;99776.81;;;22.22;37.54
75604;BME280;64187;51.010;13.792;2023-05-10T14:24:40;99772.78;;;22.40;36.31
75604;BME280;64187;51.010;13.792;2023-05-10T14:29:39;99772.28;;;22.08;37.43
75604;BME280;64187;51.010;13.792;2023-05-10T14:34:38;99771.16;;;22.09;38.30
75604;BME280;64187;51.010;13.792;2023-05-10T14:39:37;99774.72;;;22.10;37.87
75604;BME280;64187;51.010;13.792;2023-05-10T14:44:36;99775.09;;;22.00;39.13
75604;BME280;64187;51.010;13.792;2023-05-10T14:49:35;99776.59;;;21.97;37.57
75604;BME280;64187;51.010;13.792;2023-05-10T14:54:34;99776.19;;;22.07;38.32
75604;BME280;64187;51.010;13.792;2023-05-10T14:59:33;99777.47;;;22.10;38.46
75604;BME280;64187;51.010;13.792;2023-05-10T15:04:33;99778.28;;;21.81;39.41
75604;BME280;64187;51.010;13.792;2023-05-10T15:09:32;99773.38;;;21.57;39.09
75604;BME280;64187;51.010;13.792;2023-05-10T15:14:31;99778.88;;;21.48;39.81
75604;BME280;64187;51.010;13.792;2023-05-10T15:19:31;99780.72;;;21.09;39.78
75604;BME280;64187;51.010;13.792;2023-05-10T15:24:31;99784.91;;;21.24;40.83
75604;BME280;64187;51.010;13.792;2023-05-10T15:29:30;99796.25;;;20.53;47.02
75604;BME280;64187;51.010;13.792;2023-05-10T15:34:30;99804.63;;;20.30;47.95
75604;BME280;64187;51.010;13.792;2023-05-10T15:39:31;99796.00;;;20.14;49.51
75604;BME280;64187;51.010;13.792;2023-05-10T15:44:30;99804.31;;;19.83;50.59
75604;BME280;64187;51.010;13.792;2023-05-10T15:49:29;99801.56;;;19.83;51.58
75604;BME280;64187;51.010;13.792;2023-05-10T15:54:28;99804.47;;;19.55;52.18
75604;BME280;64187;51.010;13.792;2023-05-10T15:59:27;99810.94;;;19.59;52.16
75604;BME280;64187;51.010;13.792;2023-05-10T16:04:26;99811.28;;;19.35;52.48
75604;BME280;64187;51.010;13.792;2023-05-10T16:09:25;99817.53;;;19.05;53.30
75604;BME280;64187;51.010;13.792;2023-05-10T16:14:24;99815.97;;;19.12;53.25
75604;BME280;64187;51.010;13.792;2023-05-10T16:19:23;99820.59;;;19.26;52.68
75604;BME280;64187;51.010;13.792;2023-05-10T16:24:24;99815.66;;;19.36;52.32
75604;BME280;64187;51.010;13.792;2023-05-10T16:29:23;99823.78;;;19.19;53.18
75604;BME280;64187;51.010;13.792;2023-05-10T16:34:23;99831.06;;;19.24;52.33
75604;BME280;64187;51.010;13.792;2023-05-10T16:39:23;99828.97;;;19.21;51.57
75604;BME280;64187;51.010;13.792;2023-05-10T16:44:22;99844.22;;;19.35;52.31
75604;BME280;64187;51.010;13.792;2023-05-10T16:49:23;99837.75;;;19.31;52.27
75604;BME280;64187;51.010;13.792;2023-05-10T16:54:24;99852.38;;;19.27;52.39
75604;BME280;64187;51.010;13.792;2023-05-10T16:59:23;99853.78;;;19.15;52.74
75604;BME280;64187;51.010;13.792;2023-05-10T17:04:22;99854.38;;;19.12;52.60
75604;BME280;64187;51.010;13.792;2023-05-10T17:09:21;99859.94;;;18.99;53.08
75604;BME280;64187;51.010;13.792;2023-05-10T17:14:20;99865.81;;;18.92;53.67
75604;BME280;64187;51.010;13.792;2023-05-10T17:19:19;99868.78;;;18.96;53.63
75604;BME280;64187;51.010;13.792;2023-05-10T17:24:18;99871.13;;;18.88;53.04
75604;BME280;64187;51.010;13.792;2023-05-10T17:29:16;99871.66;;;18.77;54.33
75604;BME280;64187;51.010;13.792;2023-05-10T17:34:16;99888.38;;;18.75;53.66
75604;BME280;64187;51.010;13.792;2023-05-10T17:39:14;99886.38;;;18.81;53.54
75604;BME280;64187;51.010;13.792;2023-05-10T17:44:14;99890.22;;;18.80;53.51
75604;BME280;64187;51.010;13.792;2023-05-10T17:49:13;99892.25;;;18.60;53.59
75604;BME280;64187;51.010;13.792;2023-05-10T17:54:13;99895.31;;;18.45;54.63
75604;BME280;64187;51.010;13.792;2023-05-10T17:59:12;99905.38;;;18.36;54.76
75604;BME280;64187;51.010;13.792;2023-05-10T18:04:11;99896.03;;;18.37;54.63
75604;BME280;64187;51.010;13.792;2023-05-10T18:09:10;99907.63;;;18.34;54.98
75604;BME280;64187;51.010;13.792;2023-05-10T18:14:09;99911.78;;;18.31;54.62
75604;BME280;64187;51.010;13.792;2023-05-10T18:19:08;99915.00;;;18.19;55.79
75604;BME280;64187;51.010;13.792;2023-05-10T18:24:07;99917.34;;;18.12;55.47
75604;BME280;64187;51.010;13.792;2023-05-10T18:29:06;99921.59;;;18.04;57.82
75604;BME280;64187;51.010;13.792;2023-05-10T18:34:06;99924.72;;;17.98;58.68
75604;BME280;64187;51.010;13.792;2023-05-10T18:39:04;99928.56;;;17.97;59.03
75604;BME280;64187;51.010;13.792;2023-05-10T18:44:03;99923.44;;;17.76;59.51
75604;BME280;64187;51.010;13.792;2023-05-10T18:49:02;99932.97;;;17.79;59.48
75604;BME280;64187;51.010;13.792;2023-05-10T18:54:01;99944.13;;;17.50;60.54
75604;BME280;64187;51.010;13.792;2023-05-10T18:59:00;99944.94;;;17.31;61.09
75604;BME280;64187;51.010;13.792;2023-05-10T19:03:59;99951.16;;;17.18;62.09
75604;BME280;64187;51.010;13.792;2023-05-10T19:08:58;99953.28;;;17.02;62.18
75604;BME280;64187;51.010;13.792;2023-05-10T19:13:57;99958.09;;;17.10;61.47
75604;BME280;64187;51.010;13.792;2023-05-10T19:18:56;99967.03;;;16.97;62.48
75604;BME280;64187;51.010;13.792;2023-05-10T19:23:55;99971.59;;;16.83;63.01
75604;BME280;64187;51.010;13.792;2023-05-10T19:28:55;99975.69;;;16.56;63.23
75604;BME280;64187;51.010;13.792;2023-05-10T19:33:55;99975.53;;;16.47;63.55
75604;BME280;64187;51.010;13.792;2023-05-10T19:38:58;99981.44;;;16.54;63.22
75604;BME280;64187;51.010;13.792;2023-05-10T19:43:57;99975.31;;;16.39;64.57
75604;BME280;64187;51.010;13.792;2023-05-10T19:48:57;99976.88;;;16.21;65.88
75604;BME280;64187;51.010;13.792;2023-05-10T19:53:59;99981.44;;;16.30;65.45
75604;BME280;64187;51.010;13.792;2023-05-10T19:58:58;99978.63;;;15.77;67.51
75604;BME280;64187;51.010;13.792;2023-05-10T20:03:57;99978.13;;;15.70;67.76
75604;BME280;64187;51.010;13.792;2023-05-10T20:08:56;99979.78;;;15.66;68.11
75604;BME280;64187;51.010;13.792;2023-05-10T20:13:55;99987.53;;;15.48;68.74
75604;BME280;64187;51.010;13.792;2023-05-10T20:18:54;99984.31;;;15.41;68.69
75604;BME280;64187;51.010;13.792;2023-05-10T20:23:53;99990.38;;;14.78;71.39
75604;BME280;64187;51.010;13.792;2023-05-10T20:28:52;99992.09;;;14.43;73.33
75604;BME280;64187;51.010;13.792;2023-05-10T20:33:51;99991.50;;;14.52;72.73
75604;BME280;64187;51.010;13.792;2023-05-10T20:38:49;99984.78;;;13.98;75.13
75604;BME280;64187;51.010;13.792;2023-05-10T20:43:48;99992.63;;;14.30;73.82
75604;BME280;64187;51.010;13.792;2023-05-10T20:48:47;99984.94;;;14.68;71.86
75604;BME280;64187;51.010;13.792;2023-05-10T20:53:46;99990.47;;;14.17;73.80
75604;BME280;64187;51.010;13.792;2023-05-10T20:58:45;99989.94;;;13.69;75.78
75604;BME280;64187;51.010;13.792;2023-05-10T21:03:43;99991.28;;;13.61;76.23
75604;BME280;64187;51.010;13.792;2023-05-10T21:08:42;99994.00;;;13.61;76.14
75604;BME280;64187;51.010;13.792;2023-05-10T21:13:41;99988.00;;;13.49;76.67
75604;BME280;64187;51.010;13.792;2023-05-10T21:18:40;99998.38;;;14.08;74.29
75604;BME280;64187;51.010;13.792;2023-05-10T21:23:40;99995.41;;;13.99;74.00
75604;BME280;64187;51.010;13.792;2023-05-10T21:28:39;99998.94;;;13.90;74.72
75604;BME280;64187;51.010;13.792;2023-05-10T21:33:39;99993.22;;;13.81;74.50
75604;BME280;64187;51.010;13.792;2023-05-10T21:38:38;100002.63;;;13.17;77.20
75604;BME280;64187;51.010;13.792;2023-05-10T21:43:38;100002.34;;;13.24;77.15
75604;BME280;64187;51.010;13.792;2023-05-10T21:48:37;100007.88;;;13.44;75.92
75604;BME280;64187;51.010;13.792;2023-05-10T21:53:36;100005.06;;;13.24;76.66
75604;BME280;64187;51.010;13.792;2023-05-10T21:58:36;100013.16;;;13.08;77.33
75604;BME280;64187;51.010;13.792;2023-05-10T22:03:35;100005.53;;;13.00;77.75
75604;BME280;64187;51.010;13.792;2023-05-10T22:08:34;100016.69;;;12.51;79.68
75604;BME280;64187;51.010;13.792;2023-05-10T22:13:33;100017.78;;;12.50;79.67
75604;BME280;64187;51.010;13.792;2023-05-10T22:18:32;100018.75;;;12.76;78.45
75604;BME280;64187;51.010;13.792;2023-05-10T22:23:30;100023.16;;;12.40;79.86
75604;BME280;64187;51.010;13.792;2023-05-10T22:28:29;100018.78;;;12.39;79.93
75604;BME280;64187;51.010;13.792;2023-05-10T22:33:28;100019.41;;;12.09;81.29
75604;BME280;64187;51.010;13.792;2023-05-10T22:38:28;100020.84;;;12.21;80.80
75604;BME280;64187;51.010;13.792;2023-05-10T22:43:27;100021.75;;;12.00;81.23
75604;BME280;64187;51.010;13.792;2023-05-10T22:48:27;100031.03;;;12.41;79.22
75604;BME280;64187;51.010;13.792;2023-05-10T22:53:26;100017.94;;;11.96;81.32
75604;BME280;64187;51.010;13.792;2023-05-10T22:58:25;100024.19;;;12.34;79.88
75604;BME280;64187;51.010;13.792;2023-05-10T23:03:24;100017.91;;;12.28;79.88
75604;BME280;64187;51.010;13.792;2023-05-10T23:08:23;100033.53;;;11.83;82.13
75604;BME280;64187;51.010;13.792;2023-05-10T23:13:22;100026.81;;;12.18;80.32
75604;BME280;64187;51.010;13.792;2023-05-10T23:18:22;100023.91;;;12.30;79.81
75604;BME280;64187;51.010;13.792;2023-05-10T23:23:21;100027.72;;;11.97;81.26
75604;BME280;64187;51.010;13.792;2023-05-10T23:28:20;100027.81;;;12.12;80.24
75604;BME280;64187;51.010;13.792;2023-05-10T23:33:19;100035.44;;;12.10;80.63
75604;BME280;64187;51.010;13.792;2023-05-10T23:38:18;100033.91;;;11.65;82.17
75604;BME280;64187;51.010;13.792;2023-05-10T23:43:16;100029.59;;;11.42;83.76
75604;BME280;64187;51.010;13.792;2023-05-10T23:48:17;100029.38;;;11.43;83.73
75604;BME280;64187;51.010;13.792;2023-05-10T23:53:16;100024.59;;;11.29;84.18
75604;BME280;64187;51.010;13.792;2023-05-10T23:58:14;100025.06;;;11.20;83.99
